sensor_id;sensor_type;location;lat;lon;timestamp;temperature;humidity
7564;DHT22;3823;53.586;10.040;2022-10-13T00:00:34;11.20;1.00
7564;DHT22;3823;53.586;10.040;2022-10-13T00:03:02;11.20;1.00
7564;DHT22;3823;53.586;10.040;2022-10-13T00:05:28;11.40;1.00
7564;DHT22;3823;53.586;10.040;2022-10-13T00:07:55;11.30;1.00
7564;DHT22;3823;53.586;10.040;2022-10-13T00:10:21;11.20;1.00
7564;DHT22;3823;53.586;10.040;2022-10-13T00:12:47;11.20;1.00
7564;DHT22;3823;53.586;10.040;2022-10-13T00:15:13;11.10;1.00
7564;DHT22;3823;53.586;10.040;2022-10-13T00:17:38;11.10;1.00
7564;DHT22;3823;53.586;10.040;2022-10-13T00:20:06;11.20;1.00
7564;DHT22;3823;53.586;10.040;2022-10-13T00:22:32;11.10;1.00
7564;DHT22;3823;53.586;10.040;2022-10-13T00:24:58;11.10;1.00
7564;DHT22;3823;53.586;10.040;2022-10-13T00:27:23;11.10;1.00
7564;DHT22;3823;53.586;10.040;2022-10-13T00:29:49;11.10;1.00
7564;DHT22;3823;53.586;10.040;2022-10-13T00:32:15;11.10;1.00
7564;DHT22;3823;53.586;10.040;2022-10-13T00:34:41;11.00;1.00
7564;DHT22;3823;53.586;10.040;2022-10-13T00:37:06;10.90;1.00
7564;DHT22;3823;53.586;10.040;2022-10-13T00:39:32;10.90;1.00
7564;DHT22;3823;53.586;10.040;2022-10-13T00:41:59;10.80;1.00
7564;DHT22;3823;53.586;10.040;2022-10-13T00:47:41;10.90;1.00
7564;DHT22;3823;53.586;10.040;2022-10-13T00:50:10;10.90;1.00
7564;DHT22;3823;53.586;10.040;2022-10-13T00:52:38;10.90;1.00
7564;DHT22;3823;53.586;10.040;2022-10-13T00:55:06;10.80;1.00
7564;DHT22;3823;53.586;10.040;2022-10-13T00:57:33;10.80;1.00
7564;DHT22;3823;53.586;10.040;2022-10-13T01:00:00;10.60;1.00
7564;DHT22;3823;53.586;10.040;2022-10-13T01:02:33;10.60;1.00
7564;DHT22;3823;53.586;10.040;2022-10-13T01:04:59;10.70;1.00
7564;DHT22;3823;53.586;10.040;2022-10-13T01:07:25;10.70;1.00
7564;DHT22;3823;53.586;10.040;2022-10-13T01:09:51;10.80;1.00
7564;DHT22;3823;53.586;10.040;2022-10-13T01:12:24;10.90;1.00
7564;DHT22;3823;53.586;10.040;2022-10-13T01:15:16;10.90;1.00
7564;DHT22;3823;53.586;10.040;2022-10-13T01:17:59;10.90;1.00
7564;DHT22;3823;53.586;10.040;2022-10-13T01:20:51;11.00;1.00
7564;DHT22;3823;53.586;10.040;2022-10-13T01:23:29;10.90;1.00
7564;DHT22;3823;53.586;10.040;2022-10-13T01:29:26;10.60;1.00
7564;DHT22;3823;53.586;10.040;2022-10-13T01:32:10;10.60;1.00
7564;DHT22;3823;53.586;10.040;2022-10-13T01:34:43;10.60;1.00
7564;DHT22;3823;53.586;10.040;2022-10-13T01:37:17;10.60;1.00
7564;DHT22;3823;53.586;10.040;2022-10-13T01:40:04;10.60;1.00
7564;DHT22;3823;53.586;10.040;2022-10-13T01:42:54;10.70;1.00
7564;DHT22;3823;53.586;10.040;2022-10-13T01:45:25;10.60;1.00
7564;DHT22;3823;53.586;10.040;2022-10-13T01:47:52;10.50;1.00
7564;DHT22;3823;53.586;10.040;2022-10-13T01:50:19;10.30;1.00
7564;DHT22;3823;53.586;10.040;2022-10-13T01:52:45;10.30;1.00
7564;DHT22;3823;53.586;10.040;2022-10-13T01:55:11;10.30;1.00
7564;DHT22;3823;53.586;10.040;2022-10-13T01:57:42;10.20;1.00
7564;DHT22;3823;53.586;10.040;2022-10-13T02:00:16;10.20;1.00
7564;DHT22;3823;53.586;10.040;2022-10-13T02:03:16;10.20;1.00
7564;DHT22;3823;53.586;10.040;2022-10-13T02:05:47;10.10;1.00
7564;DHT22;3823;53.586;10.040;2022-10-13T02:08:43;10.00;1.00
7564;DHT22;3823;53.586;10.040;2022-10-13T02:11:16;10.10;1.00
7564;DHT22;3823;53.586;10.040;2022-10-13T02:13:58;10.20;1.00
7564;DHT22;3823;53.586;10.040;2022-10-13T02:16:30;10.30;1.00
7564;DHT22;3823;53.586;10.040;2022-10-13T02:19:01;10.30;1.00
7564;DHT22;3823;53.586;10.040;2022-10-13T02:21:29;10.30;1.00
7564;DHT22;3823;53.586;10.040;2022-10-13T02:23:56;10.30;1.00
7564;DHT22;3823;53.586;10.040;2022-10-13T02:26:22;10.20;1.00
7564;DHT22;3823;53.586;10.040;2022-10-13T02:28:47;10.20;1.00
7564;DHT22;3823;53.586;10.040;2022-10-13T02:31:13;10.20;1.00
7564;DHT22;3823;53.586;10.040;2022-10-13T02:33:38;10.20;1.00
7564;DHT22;3823;53.586;10.040;2022-10-13T02:36:04;10.20;1.00
7564;DHT22;3823;53.586;10.040;2022-10-13T02:38:30;10.10;1.00
7564;DHT22;3823;53.586;10.040;2022-10-13T02:40:55;10.10;1.00
7564;DHT22;3823;53.586;10.040;2022-10-13T02:43:21;10.00;1.00
7564;DHT22;3823;53.586;10.040;2022-10-13T02:45:46;10.00;1.00
7564;DHT22;3823;53.586;10.040;2022-10-13T02:48:12;10.00;1.00
7564;DHT22;3823;53.586;10.040;2022-10-13T02:50:37;10.00;1.00
7564;DHT22;3823;53.586;10.040;2022-10-13T02:53:03;10.00;1.00
7564;DHT22;3823;53.586;10.040;2022-10-13T02:55:28;10.00;1.00
7564;DHT22;3823;53.586;10.040;2022-10-13T02:57:54;10.10;1.00
7564;DHT22;3823;53.586;10.040;2022-10-13T03:00:20;10.00;1.00
7564;DHT22;3823;53.586;10.040;2022-10-13T03:02:45;9.80;1.00
7564;DHT22;3823;53.586;10.040;2022-10-13T03:05:11;9.80;1.00
7564;DHT22;3823;53.586;10.040;2022-10-13T03:07:37;9.80;1.00
7564;DHT22;3823;53.586;10.040;2022-10-13T03:10:03;9.80;1.00
7564;DHT22;3823;53.586;10.040;2022-10-13T03:12:29;9.80;1.00
7564;DHT22;3823;53.586;10.040;2022-10-13T03:14:55;9.80;1.00
7564;DHT22;3823;53.586;10.040;2022-10-13T03:17:20;9.80;1.00
7564;DHT22;3823;53.586;10.040;2022-10-13T03:19:46;9.80;1.00
7564;DHT22;3823;53.586;10.040;2022-10-13T03:22:11;9.90;1.00
7564;DHT22;3823;53.586;10.040;2022-10-13T03:24:40;9.90;1.00
7564;DHT22;3823;53.586;10.040;2022-10-13T03:27:05;10.00;1.00
7564;DHT22;3823;53.586;10.040;2022-10-13T03:29:31;9.80;1.00
7564;DHT22;3823;53.586;10.040;2022-10-13T03:31:56;9.70;1.00
7564;DHT22;3823;53.586;10.040;2022-10-13T03:34:22;9.70;1.00
7564;DHT22;3823;53.586;10.040;2022-10-13T03:36:47;9.70;1.00
7564;DHT22;3823;53.586;10.040;2022-10-13T03:39:13;9.70;1.00
7564;DHT22;3823;53.586;10.040;2022-10-13T03:41:38;9.80;1.00
7564;DHT22;3823;53.586;10.040;2022-10-13T03:44:04;9.80;1.00
7564;DHT22;3823;53.586;10.040;2022-10-13T03:46:30;9.80;1.00
7564;DHT22;3823;53.586;10.040;2022-10-13T03:48:56;9.80;1.00
7564;DHT22;3823;53.586;10.040;2022-10-13T03:51:22;9.90;1.00
7564;DHT22;3823;53.586;10.040;2022-10-13T03:53:49;9.70;1.00
7564;DHT22;3823;53.586;10.040;2022-10-13T03:56:20;9.70;1.00
7564;DHT22;3823;53.586;10.040;2022-10-13T03:58:46;9.70;1.00
7564;DHT22;3823;53.586;10.040;2022-10-13T04:01:12;9.70;1.00
7564;DHT22;3823;53.586;10.040;2022-10-13T04:03:38;9.70;1.00
7564;DHT22;3823;53.586;10.040;2022-10-13T04:06:04;9.70;1.00
7564;DHT22;3823;53.586;10.040;2022-10-13T04:08:31;9.80;1.00
7564;DHT22;3823;53.586;10.040;2022-10-13T04:11:09;9.90;1.00
7564;DHT22;3823;53.586;10.040;2022-10-13T04:13:35;10.00;1.00
7564;DHT22;3823;53.586;10.040;2022-10-13T04:16:05;10.00;1.00
7564;DHT22;3823;53.586;10.040;2022-10-13T04:18:31;10.00;1.00
7564;DHT22;3823;53.586;10.040;2022-10-13T04:20:57;10.00;1.00
7564;DHT22;3823;53.586;10.040;2022-10-13T04:23:22;10.00;1.00
7564;DHT22;3823;53.586;10.040;2022-10-13T04:25:48;10.00;1.00
7564;DHT22;3823;53.586;10.040;2022-10-13T04:28:14;9.90;1.00
7564;DHT22;3823;53.586;10.040;2022-10-13T04:30:39;9.80;1.00
7564;DHT22;3823;53.586;10.040;2022-10-13T04:33:05;9.80;1.00
7564;DHT22;3823;53.586;10.040;2022-10-13T04:35:30;9.90;1.00
7564;DHT22;3823;53.586;10.040;2022-10-13T04:37:56;9.90;1.00
7564;DHT22;3823;53.586;10.040;2022-10-13T04:40:23;9.90;1.00
7564;DHT22;3823;53.586;10.040;2022-10-13T04:42:49;9.80;1.00
7564;DHT22;3823;53.586;10.040;2022-10-13T04:45:15;9.80;1.00
7564;DHT22;3823;53.586;10.040;2022-10-13T04:47:40;9.80;1.00
7564;DHT22;3823;53.586;10.040;2022-10-13T04:50:06;9.80;1.00
7564;DHT22;3823;53.586;10.040;2022-10-13T04:52:36;9.80;1.00
7564;DHT22;3823;53.586;10.040;2022-10-13T04:55:02;9.70;1.00
7564;DHT22;3823;53.586;10.040;2022-10-13T04:57:27;9.70;1.00
7564;DHT22;3823;53.586;10.040;2022-10-13T04:59:53;9.60;1.00
7564;DHT22;3823;53.586;10.040;2022-10-13T05:02:18;9.50;1.00
7564;DHT22;3823;53.586;10.040;2022-10-13T05:04:44;9.60;1.00
7564;DHT22;3823;53.586;10.040;2022-10-13T05:07:10;9.50;1.00
7564;DHT22;3823;53.586;10.040;2022-10-13T05:09:35;9.60;1.00
7564;DHT22;3823;53.586;10.040;2022-10-13T05:12:01;9.60;1.00
7564;DHT22;3823;53.586;10.040;2022-10-13T05:14:26;9.60;1.00
7564;DHT22;3823;53.586;10.040;2022-10-13T05:16:52;9.60;1.00
7564;DHT22;3823;53.586;10.040;2022-10-13T05:19:17;9.60;1.00
7564;DHT22;3823;53.586;10.040;2022-10-13T05:21:43;9.60;1.00
7564;DHT22;3823;53.586;10.040;2022-10-13T05:24:08;9.60;1.00
7564;DHT22;3823;53.586;10.040;2022-10-13T05:26:38;9.50;1.00
7564;DHT22;3823;53.586;10.040;2022-10-13T05:29:04;9.50;1.00
7564;DHT22;3823;53.586;10.040;2022-10-13T05:31:31;9.60;1.00
7564;DHT22;3823;53.586;10.040;2022-10-13T05:33:57;9.50;1.00
7564;DHT22;3823;53.586;10.040;2022-10-13T05:36:28;9.50;1.00
7564;DHT22;3823;53.586;10.040;2022-10-13T05:39:05;9.60;1.00
7564;DHT22;3823;53.586;10.040;2022-10-13T05:41:31;9.50;1.00
7564;DHT22;3823;53.586;10.040;2022-10-13T05:44:03;9.30;1.00
7564;DHT22;3823;53.586;10.040;2022-10-13T05:46:29;9.40;1.00
7564;DHT22;3823;53.586;10.040;2022-10-13T05:48:54;9.40;1.00
7564;DHT22;3823;53.586;10.040;2022-10-13T05:51:23;9.40;1.00
7564;DHT22;3823;53.586;10.040;2022-10-13T05:54:03;9.40;1.00
7564;DHT22;3823;53.586;10.040;2022-10-13T05:56:38;9.50;1.00
7564;DHT22;3823;53.586;10.040;2022-10-13T05:59:07;9.40;1.00
7564;DHT22;3823;53.586;10.040;2022-10-13T06:01:36;9.30;1.00
7564;DHT22;3823;53.586;10.040;2022-10-13T06:04:08;9.40;1.00
7564;DHT22;3823;53.586;10.040;2022-10-13T06:06:34;9.30;1.00
7564;DHT22;3823;53.586;10.040;2022-10-13T06:09:00;9.30;1.00
7564;DHT22;3823;53.586;10.040;2022-10-13T06:11:25;9.40;1.00
7564;DHT22;3823;53.586;10.040;2022-10-13T06:13:51;9.30;1.00
7564;DHT22;3823;53.586;10.040;2022-10-13T06:16:17;9.40;1.00
7564;DHT22;3823;53.586;10.040;2022-10-13T06:18:42;9.60;1.00
7564;DHT22;3823;53.586;10.040;2022-10-13T06:21:08;9.60;1.00
7564;DHT22;3823;53.586;10.040;2022-10-13T06:23:33;9.70;1.00
7564;DHT22;3823;53.586;10.040;2022-10-13T06:25:59;9.70;1.00
7564;DHT22;3823;53.586;10.040;2022-10-13T06:28:25;9.70;1.00
7564;DHT22;3823;53.586;10.040;2022-10-13T06:30:51;9.70;1.00
7564;DHT22;3823;53.586;10.040;2022-10-13T06:33:22;9.70;1.00
7564;DHT22;3823;53.586;10.040;2022-10-13T06:35:49;9.70;1.00
7564;DHT22;3823;53.586;10.040;2022-10-13T06:38:15;9.70;1.00
7564;DHT22;3823;53.586;10.040;2022-10-13T06:40:42;9.80;1.00
7564;DHT22;3823;53.586;10.040;2022-10-13T06:43:07;9.80;1.00
7564;DHT22;3823;53.586;10.040;2022-10-13T06:45:33;9.70;1.00
7564;DHT22;3823;53.586;10.040;2022-10-13T06:47:58;9.90;1.00
7564;DHT22;3823;53.586;10.040;2022-10-13T06:50:24;9.80;1.00
7564;DHT22;3823;53.586;10.040;2022-10-13T06:52:49;9.70;1.00
7564;DHT22;3823;53.586;10.040;2022-10-13T06:55:16;9.70;1.00
7564;DHT22;3823;53.586;10.040;2022-10-13T06:57:41;9.70;1.00
7564;DHT22;3823;53.586;10.040;2022-10-13T07:00:07;9.70;1.00
7564;DHT22;3823;53.586;10.040;2022-10-13T07:02:33;9.80;1.00
7564;DHT22;3823;53.586;10.040;2022-10-13T07:04:59;9.90;1.00
7564;DHT22;3823;53.586;10.040;2022-10-13T07:07:24;10.00;1.00
7564;DHT22;3823;53.586;10.040;2022-10-13T07:09:50;10.00;1.00
7564;DHT22;3823;53.586;10.040;2022-10-13T07:12:16;10.10;1.00
7564;DHT22;3823;53.586;10.040;2022-10-13T07:14:41;9.90;1.00
7564;DHT22;3823;53.586;10.040;2022-10-13T07:17:07;9.90;1.00
7564;DHT22;3823;53.586;10.040;2022-10-13T07:19:32;9.90;1.00
7564;DHT22;3823;53.586;10.040;2022-10-13T07:21:58;9.90;1.00
7564;DHT22;3823;53.586;10.040;2022-10-13T07:24:24;9.90;1.00
7564;DHT22;3823;53.586;10.040;2022-10-13T07:26:49;9.90;1.00
7564;DHT22;3823;53.586;10.040;2022-10-13T07:29:15;9.90;1.00
7564;DHT22;3823;53.586;10.040;2022-10-13T07:31:44;10.00;1.00
7564;DHT22;3823;53.586;10.040;2022-10-13T07:34:11;10.00;1.00
7564;DHT22;3823;53.586;10.040;2022-10-13T07:36:36;10.10;1.00
7564;DHT22;3823;53.586;10.040;2022-10-13T07:39:05;10.10;1.00
7564;DHT22;3823;53.586;10.040;2022-10-13T07:41:31;10.10;1.00
7564;DHT22;3823;53.586;10.040;2022-10-13T07:43:57;10.10;1.00
7564;DHT22;3823;53.586;10.040;2022-10-13T07:46:23;10.20;1.00
7564;DHT22;3823;53.586;10.040;2022-10-13T07:48:48;10.30;1.00
7564;DHT22;3823;53.586;10.040;2022-10-13T07:51:15;10.30;1.00
7564;DHT22;3823;53.586;10.040;2022-10-13T07:53:41;10.50;1.00
7564;DHT22;3823;53.586;10.040;2022-10-13T07:56:09;10.70;1.00
7564;DHT22;3823;53.586;10.040;2022-10-13T07:58:36;10.60;1.00
7564;DHT22;3823;53.586;10.040;2022-10-13T08:01:03;10.70;1.00
7564;DHT22;3823;53.586;10.040;2022-10-13T08:03:28;10.80;1.00
7564;DHT22;3823;53.586;10.040;2022-10-13T08:05:54;10.80;1.00
7564;DHT22;3823;53.586;10.040;2022-10-13T08:08:22;10.90;1.00
7564;DHT22;3823;53.586;10.040;2022-10-13T08:10:47;10.80;1.00
7564;DHT22;3823;53.586;10.040;2022-10-13T08:13:13;10.90;1.00
7564;DHT22;3823;53.586;10.040;2022-10-13T08:15:42;10.90;1.00
7564;DHT22;3823;53.586;10.040;2022-10-13T08:18:10;10.80;1.00
7564;DHT22;3823;53.586;10.040;2022-10-13T08:20:39;10.80;1.00
7564;DHT22;3823;53.586;10.040;2022-10-13T08:23:05;10.80;1.00
7564;DHT22;3823;53.586;10.040;2022-10-13T08:25:38;10.80;1.00
7564;DHT22;3823;53.586;10.040;2022-10-13T08:28:05;10.90;1.00
7564;DHT22;3823;53.586;10.040;2022-10-13T08:30:31;10.90;1.00
7564;DHT22;3823;53.586;10.040;2022-10-13T08:32:57;11.10;1.00
7564;DHT22;3823;53.586;10.040;2022-10-13T08:35:22;11.10;1.00
7564;DHT22;3823;53.586;10.040;2022-10-13T08:37:48;11.30;1.00
7564;DHT22;3823;53.586;10.040;2022-10-13T08:40:16;11.30;1.00
7564;DHT22;3823;53.586;10.040;2022-10-13T08:42:44;11.30;1.00
7564;DHT22;3823;53.586;10.040;2022-10-13T08:45:22;11.30;1.00
7564;DHT22;3823;53.586;10.040;2022-10-13T08:47:55;11.20;1.00
7564;DHT22;3823;53.586;10.040;2022-10-13T08:50:26;11.20;1.00
7564;DHT22;3823;53.586;10.040;2022-10-13T08:52:57;11.20;1.00
7564;DHT22;3823;53.586;10.040;2022-10-13T08:55:30;11.20;1.00
7564;DHT22;3823;53.586;10.040;2022-10-13T08:57:57;11.20;1.00
7564;DHT22;3823;53.586;10.040;2022-10-13T09:00:23;11.40;1.00
7564;DHT22;3823;53.586;10.040;2022-10-13T09:02:49;11.40;1.00
7564;DHT22;3823;53.586;10.040;2022-10-13T09:05:33;11.40;1.00
7564;DHT22;3823;53.586;10.040;2022-10-13T09:08:01;11.50;1.00
7564;DHT22;3823;53.586;10.040;2022-10-13T09:10:27;11.60;1.00
7564;DHT22;3823;53.586;10.040;2022-10-13T09:12:53;11.70;1.00
7564;DHT22;3823;53.586;10.040;2022-10-13T09:15:20;11.80;1.00
7564;DHT22;3823;53.586;10.040;2022-10-13T09:18:09;11.80;1.00
7564;DHT22;3823;53.586;10.040;2022-10-13T09:20:35;11.90;1.00
7564;DHT22;3823;53.586;10.040;2022-10-13T09:23:08;11.90;1.00
7564;DHT22;3823;53.586;10.040;2022-10-13T09:25:49;12.00;1.00
7564;DHT22;3823;53.586;10.040;2022-10-13T09:30:45;12.30;1.00
7564;DHT22;3823;53.586;10.040;2022-10-13T09:33:23;12.50;1.00
7564;DHT22;3823;53.586;10.040;2022-10-13T09:36:09;12.60;1.00
7564;DHT22;3823;53.586;10.040;2022-10-13T09:38:39;12.70;1.00
7564;DHT22;3823;53.586;10.040;2022-10-13T09:43:36;12.80;1.00
7564;DHT22;3823;53.586;10.040;2022-10-13T09:46:18;12.80;1.00
7564;DHT22;3823;53.586;10.040;2022-10-13T09:48:48;13.00;1.00
7564;DHT22;3823;53.586;10.040;2022-10-13T09:51:40;13.20;1.00
7564;DHT22;3823;53.586;10.040;2022-10-13T09:54:24;13.60;1.00
7564;DHT22;3823;53.586;10.040;2022-10-13T09:56:56;13.70;1.00
7564;DHT22;3823;53.586;10.040;2022-10-13T09:59:36;13.80;1.00
7564;DHT22;3823;53.586;10.040;2022-10-13T10:02:19;13.80;1.00
7564;DHT22;3823;53.586;10.040;2022-10-13T10:04:46;13.70;1.00
7564;DHT22;3823;53.586;10.040;2022-10-13T10:07:21;13.70;1.00
7564;DHT22;3823;53.586;10.040;2022-10-13T10:09:53;13.70;1.00
7564;DHT22;3823;53.586;10.040;2022-10-13T10:12:22;13.70;1.00
7564;DHT22;3823;53.586;10.040;2022-10-13T10:14:49;13.70;1.00
7564;DHT22;3823;53.586;10.040;2022-10-13T10:23:03;13.70;1.00
7564;DHT22;3823;53.586;10.040;2022-10-13T10:33:54;13.50;1.00
7564;DHT22;3823;53.586;10.040;2022-10-13T10:36:26;13.50;1.00
7564;DHT22;3823;53.586;10.040;2022-10-13T10:41:59;13.60;1.00
7564;DHT22;3823;53.586;10.040;2022-10-13T10:44:42;13.70;1.00
7564;DHT22;3823;53.586;10.040;2022-10-13T10:47:32;13.70;1.00
7564;DHT22;3823;53.586;10.040;2022-10-13T10:50:03;13.80;1.00
7564;DHT22;3823;53.586;10.040;2022-10-13T10:52:58;13.80;1.00
7564;DHT22;3823;53.586;10.040;2022-10-13T10:55:32;13.70;1.00
7564;DHT22;3823;53.586;10.040;2022-10-13T11:00:56;13.70;1.00
7564;DHT22;3823;53.586;10.040;2022-10-13T11:06:36;13.90;1.00
7564;DHT22;3823;53.586;10.040;2022-10-13T11:09:04;14.00;1.00
7564;DHT22;3823;53.586;10.040;2022-10-13T11:11:33;14.00;1.00
7564;DHT22;3823;53.586;10.040;2022-10-13T11:16:57;14.20;1.00
7564;DHT22;3823;53.586;10.040;2022-10-13T11:19:32;14.30;1.00
7564;DHT22;3823;53.586;10.040;2022-10-13T11:40:28;14.80;1.00
7564;DHT22;3823;53.586;10.040;2022-10-13T11:57:25;15.90;1.00
7564;DHT22;3823;53.586;10.040;2022-10-13T11:59:53;15.80;1.00
7564;DHT22;3823;53.586;10.040;2022-10-13T12:02:22;15.90;1.00
7564;DHT22;3823;53.586;10.040;2022-10-13T12:07:49;16.20;1.00
7564;DHT22;3823;53.586;10.040;2022-10-13T12:10:29;16.20;1.00
7564;DHT22;3823;53.586;10.040;2022-10-13T12:12:55;16.10;1.00
7564;DHT22;3823;53.586;10.040;2022-10-13T12:15:36;16.00;1.00
7564;DHT22;3823;53.586;10.040;2022-10-13T12:18:24;16.00;1.00
7564;DHT22;3823;53.586;10.040;2022-10-13T12:20:57;16.00;1.00
7564;DHT22;3823;53.586;10.040;2022-10-13T12:23:24;16.00;1.00
7564;DHT22;3823;53.586;10.040;2022-10-13T12:25:51;16.00;1.00
7564;DHT22;3823;53.586;10.040;2022-10-13T12:28:22;16.00;1.00
7564;DHT22;3823;53.586;10.040;2022-10-13T12:30:51;16.00;1.00
7564;DHT22;3823;53.586;10.040;2022-10-13T12:33:32;16.00;1.00
7564;DHT22;3823;53.586;10.040;2022-10-13T12:36:32;16.00;1.00
7564;DHT22;3823;53.586;10.040;2022-10-13T12:39:04;16.00;1.00
7564;DHT22;3823;53.586;10.040;2022-10-13T12:41:36;16.10;1.00
7564;DHT22;3823;53.586;10.040;2022-10-13T12:44:03;16.00;1.00
7564;DHT22;3823;53.586;10.040;2022-10-13T12:51:49;16.10;1.00
7564;DHT22;3823;53.586;10.040;2022-10-13T12:54:21;16.10;1.00
7564;DHT22;3823;53.586;10.040;2022-10-13T12:56:48;16.10;1.00
7564;DHT22;3823;53.586;10.040;2022-10-13T12:59:19;16.10;1.00
7564;DHT22;3823;53.586;10.040;2022-10-13T13:01:52;16.10;1.00
7564;DHT22;3823;53.586;10.040;2022-10-13T13:04:45;16.10;1.00
7564;DHT22;3823;53.586;10.040;2022-10-13T13:07:31;16.10;1.00
7564;DHT22;3823;53.586;10.040;2022-10-13T13:10:14;16.10;1.00
7564;DHT22;3823;53.586;10.040;2022-10-13T13:12:41;16.00;1.00
7564;DHT22;3823;53.586;10.040;2022-10-13T13:15:30;15.90;1.00
7564;DHT22;3823;53.586;10.040;2022-10-13T13:20:52;16.00;1.00
7564;DHT22;3823;53.586;10.040;2022-10-13T13:23:19;15.90;1.00
7564;DHT22;3823;53.586;10.040;2022-10-13T13:26:05;15.90;1.00
7564;DHT22;3823;53.586;10.040;2022-10-13T13:28:35;15.90;1.00
7564;DHT22;3823;53.586;10.040;2022-10-13T13:31:01;15.80;1.00
7564;DHT22;3823;53.586;10.040;2022-10-13T13:33:27;15.80;1.00
7564;DHT22;3823;53.586;10.040;2022-10-13T13:35:52;15.80;1.00
7564;DHT22;3823;53.586;10.040;2022-10-13T13:38:18;15.80;1.00
7564;DHT22;3823;53.586;10.040;2022-10-13T13:40:44;15.90;1.00
7564;DHT22;3823;53.586;10.040;2022-10-13T13:43:09;15.80;1.00
7564;DHT22;3823;53.586;10.040;2022-10-13T13:45:35;15.80;1.00
7564;DHT22;3823;53.586;10.040;2022-10-13T13:48:01;15.80;1.00
7564;DHT22;3823;53.586;10.040;2022-10-13T13:50:31;15.80;1.00
7564;DHT22;3823;53.586;10.040;2022-10-13T13:52:58;15.80;1.00
7564;DHT22;3823;53.586;10.040;2022-10-13T13:55:24;15.80;1.00
7564;DHT22;3823;53.586;10.040;2022-10-13T13:57:49;15.80;1.00
7564;DHT22;3823;53.586;10.040;2022-10-13T14:00:16;15.80;1.00
7564;DHT22;3823;53.586;10.040;2022-10-13T14:02:42;15.80;1.00
7564;DHT22;3823;53.586;10.040;2022-10-13T14:05:09;15.80;1.00
7564;DHT22;3823;53.586;10.040;2022-10-13T14:07:35;15.80;1.00
7564;DHT22;3823;53.586;10.040;2022-10-13T14:10:01;15.70;1.00
7564;DHT22;3823;53.586;10.040;2022-10-13T14:12:29;15.80;1.00
7564;DHT22;3823;53.586;10.040;2022-10-13T14:14:54;15.80;1.00
7564;DHT22;3823;53.586;10.040;2022-10-13T14:17:21;15.80;1.00
7564;DHT22;3823;53.586;10.040;2022-10-13T14:19:47;15.80;1.00
7564;DHT22;3823;53.586;10.040;2022-10-13T14:22:12;15.80;1.00
7564;DHT22;3823;53.586;10.040;2022-10-13T14:24:38;15.80;1.00
7564;DHT22;3823;53.586;10.040;2022-10-13T14:27:04;15.80;1.00
7564;DHT22;3823;53.586;10.040;2022-10-13T14:29:29;15.70;1.00
7564;DHT22;3823;53.586;10.040;2022-10-13T14:31:55;15.80;1.00
7564;DHT22;3823;53.586;10.040;2022-10-13T14:34:21;15.80;1.00
7564;DHT22;3823;53.586;10.040;2022-10-13T14:36:46;15.80;1.00
7564;DHT22;3823;53.586;10.040;2022-10-13T14:39:12;15.80;1.00
7564;DHT22;3823;53.586;10.040;2022-10-13T14:41:38;15.80;1.00
7564;DHT22;3823;53.586;10.040;2022-10-13T14:44:08;15.80;1.00
7564;DHT22;3823;53.586;10.040;2022-10-13T14:46:35;15.90;1.00
7564;DHT22;3823;53.586;10.040;2022-10-13T14:49:00;15.80;1.00
7564;DHT22;3823;53.586;10.040;2022-10-13T14:51:26;15.90;1.00
7564;DHT22;3823;53.586;10.040;2022-10-13T14:53:51;15.90;1.00
7564;DHT22;3823;53.586;10.040;2022-10-13T14:56:22;15.90;1.00
7564;DHT22;3823;53.586;10.040;2022-10-13T14:58:50;15.90;1.00
7564;DHT22;3823;53.586;10.040;2022-10-13T15:01:17;15.90;1.00
7564;DHT22;3823;53.586;10.040;2022-10-13T15:03:43;15.80;1.00
7564;DHT22;3823;53.586;10.040;2022-10-13T15:06:16;15.80;1.00
7564;DHT22;3823;53.586;10.040;2022-10-13T15:08:44;15.80;1.00
7564;DHT22;3823;53.586;10.040;2022-10-13T15:11:18;15.80;1.00
7564;DHT22;3823;53.586;10.040;2022-10-13T15:13:44;15.80;1.00
7564;DHT22;3823;53.586;10.040;2022-10-13T15:16:21;15.80;1.00
7564;DHT22;3823;53.586;10.040;2022-10-13T15:18:48;15.80;1.00
7564;DHT22;3823;53.586;10.040;2022-10-13T15:21:14;15.70;1.00
7564;DHT22;3823;53.586;10.040;2022-10-13T15:23:40;15.80;1.00
7564;DHT22;3823;53.586;10.040;2022-10-13T15:26:06;15.70;1.00
7564;DHT22;3823;53.586;10.040;2022-10-13T15:28:43;15.70;1.00
7564;DHT22;3823;53.586;10.040;2022-10-13T15:31:09;15.70;1.00
7564;DHT22;3823;53.586;10.040;2022-10-13T15:33:35;15.70;1.00
7564;DHT22;3823;53.586;10.040;2022-10-13T15:36:01;15.70;1.00
7564;DHT22;3823;53.586;10.040;2022-10-13T15:38:27;15.70;1.00
7564;DHT22;3823;53.586;10.040;2022-10-13T15:40:58;15.70;1.00
7564;DHT22;3823;53.586;10.040;2022-10-13T15:43:24;15.60;1.00
7564;DHT22;3823;53.586;10.040;2022-10-13T15:46:00;15.60;1.00
7564;DHT22;3823;53.586;10.040;2022-10-13T15:48:26;15.50;1.00
7564;DHT22;3823;53.586;10.040;2022-10-13T15:50:51;15.50;1.00
7564;DHT22;3823;53.586;10.040;2022-10-13T15:53:17;15.40;1.00
7564;DHT22;3823;53.586;10.040;2022-10-13T15:55:44;15.50;1.00
7564;DHT22;3823;53.586;10.040;2022-10-13T15:58:09;15.50;1.00
7564;DHT22;3823;53.586;10.040;2022-10-13T16:00:35;15.50;1.00
7564;DHT22;3823;53.586;10.040;2022-10-13T16:03:00;15.40;1.00
7564;DHT22;3823;53.586;10.040;2022-10-13T16:05:28;15.50;1.00
7564;DHT22;3823;53.586;10.040;2022-10-13T16:07:54;15.50;1.00
7564;DHT22;3823;53.586;10.040;2022-10-13T16:10:19;15.40;1.00
7564;DHT22;3823;53.586;10.040;2022-10-13T16:12:45;15.40;1.00
7564;DHT22;3823;53.586;10.040;2022-10-13T16:15:10;15.40;1.00
7564;DHT22;3823;53.586;10.040;2022-10-13T16:17:36;15.40;1.00
7564;DHT22;3823;53.586;10.040;2022-10-13T16:20:03;15.40;1.00
7564;DHT22;3823;53.586;10.040;2022-10-13T16:22:29;15.30;1.00
7564;DHT22;3823;53.586;10.040;2022-10-13T16:24:54;15.30;1.00
7564;DHT22;3823;53.586;10.040;2022-10-13T16:27:20;15.30;1.00
7564;DHT22;3823;53.586;10.040;2022-10-13T16:29:46;15.30;1.00
7564;DHT22;3823;53.586;10.040;2022-10-13T16:32:11;15.30;1.00
7564;DHT22;3823;53.586;10.040;2022-10-13T16:34:37;15.30;1.00
7564;DHT22;3823;53.586;10.040;2022-10-13T16:37:03;15.30;1.00
7564;DHT22;3823;53.586;10.040;2022-10-13T16:39:28;15.30;1.00
7564;DHT22;3823;53.586;10.040;2022-10-13T16:41:54;15.30;1.00
7564;DHT22;3823;53.586;10.040;2022-10-13T16:44:20;15.30;1.00
7564;DHT22;3823;53.586;10.040;2022-10-13T16:46:45;15.40;1.00
7564;DHT22;3823;53.586;10.040;2022-10-13T16:49:14;15.40;1.00
7564;DHT22;3823;53.586;10.040;2022-10-13T16:51:39;15.40;1.00
7564;DHT22;3823;53.586;10.040;2022-10-13T16:54:05;15.40;1.00
7564;DHT22;3823;53.586;10.040;2022-10-13T16:56:31;15.30;1.00
7564;DHT22;3823;53.586;10.040;2022-10-13T16:58:59;15.30;1.00
7564;DHT22;3823;53.586;10.040;2022-10-13T17:01:25;15.30;1.00
7564;DHT22;3823;53.586;10.040;2022-10-13T17:03:52;15.30;1.00
7564;DHT22;3823;53.586;10.040;2022-10-13T17:06:20;15.30;1.00
7564;DHT22;3823;53.586;10.040;2022-10-13T17:08:46;15.30;1.00
7564;DHT22;3823;53.586;10.040;2022-10-13T17:11:19;15.30;1.00
7564;DHT22;3823;53.586;10.040;2022-10-13T17:13:45;15.30;1.00
7564;DHT22;3823;53.586;10.040;2022-10-13T17:16:11;15.30;1.00
7564;DHT22;3823;53.586;10.040;2022-10-13T17:18:37;15.30;1.00
7564;DHT22;3823;53.586;10.040;2022-10-13T17:21:05;15.30;1.00
7564;DHT22;3823;53.586;10.040;2022-10-13T17:23:33;15.30;1.00
7564;DHT22;3823;53.586;10.040;2022-10-13T17:26:04;15.30;1.00
7564;DHT22;3823;53.586;10.040;2022-10-13T17:28:31;15.30;1.00
7564;DHT22;3823;53.586;10.040;2022-10-13T17:30:57;15.20;1.00
7564;DHT22;3823;53.586;10.040;2022-10-13T17:33:24;15.10;1.00
7564;DHT22;3823;53.586;10.040;2022-10-13T17:35:50;15.00;1.00